Tropical Cyclones
[Index]
Main Index Home Page Stock Weather Photos Extreme Storms Discussion Storm News and Storm Chasing Reports Tropical Cyclones / Hurricanes / Typhoons Weather Data and Links Wild Fires / Bushfires Weather Observation Techniques Weather Picture Catalogue Tornado Pictures and Reports Stock Video Footage and DVDs for sale
Season 2008-2009 Tropical Cyclone CINDA Track Map
Season 2008-2009 Summaries (Operational Data): [AU] [SIO] [SPAC] [SH]
<<- Previous TC | 2008-2009 Season | Next TC ->>

click for intensity scale information  Lat/long Grid: Show Hide

 Date Labels: Show Hide

Operational Tropical Cyclone Data : JTWC Advisories

Name: CINDA
Number: 0904

15 Dec 2008 12:00 UTC to 21 Dec 2008 06:00 UTC

    date/time    lat    long     hPa   cat  kts
2008-12-15 12    9.4    69.8    1003         20          
2008-12-16 00    9.4    68.6    1002         20          
2008-12-16 12    9.8    67.6    1002         25          
2008-12-16 18   10.1    67.3    1000         25          
2008-12-17 00   10.8    66.9     999         30          
2008-12-17 06   10.3    66.5     998         30          
2008-12-17 12   10.5    66.7     998         30          
2008-12-17 18   10.9    67.0     997         30          
2008-12-18 00   11.3    66.9     994    1    35          
2008-12-18 06   12.2    66.8     985    2    50          
2008-12-18 12   12.9    66.8     985    2    50          
2008-12-18 18   12.8    66.6     987    1    45          
2008-12-19 00   13.6    65.7     992    1    40          
2008-12-19 06   13.4    65.3     990    1    40          
2008-12-19 12   13.7    64.9     990    1    40          
2008-12-19 18   13.9    64.0     990    1    40          
2008-12-20 00   14.2    63.1     990    1    40          
2008-12-20 06   13.8    62.9     992    1    40          
2008-12-20 12   14.1    62.6     998         30          
2008-12-20 18   14.7    62.4    1000         25          
2008-12-21 00   15.4    62.1    1000         25          
2008-12-21 06   14.9    60.0    1000         20          
Winds are 10-min average.

Tropical cyclone tracks developed by Michael Bath using operational warnings and advisories and Google Maps.


[Australian Severe Weather index] [Copyright Notice] [Email Contacts] [Search This Site] [Privacy Policy]
Document: tropical_cyclone_cinda.htm Updated: 28 May 2013